createdAt,value
2022-11-24T00:00:12.302Z,2
2022-11-24T00:03:13.539Z,2.1
2022-11-24T00:06:12.237Z,2.2
2022-11-24T00:09:12.101Z,2.4
2022-11-24T00:12:12.298Z,2.4
2022-11-24T00:15:12.074Z,2.5
2022-11-24T00:18:12.119Z,2.5
2022-11-24T00:21:12.235Z,2.6
2022-11-24T00:24:12.207Z,2.6
2022-11-24T00:27:12.101Z,2.7
2022-11-24T00:30:12.218Z,2.7
2022-11-24T00:33:12.094Z,2.9
2022-11-24T00:36:12.270Z,2.9
2022-11-24T00:39:12.192Z,3
2022-11-24T00:42:12.162Z,3
2022-11-24T00:45:24.793Z,3.1
2022-11-24T00:48:12.160Z,3.1
2022-11-24T00:51:12.129Z,3.2
2022-11-24T00:54:12.155Z,3.2
2022-11-24T00:57:12.095Z,3.2
2022-11-24T01:00:12.126Z,3.4
2022-11-24T01:03:12.561Z,3.4
2022-11-24T01:06:12.153Z,3.4
2022-11-24T01:09:12.133Z,3.5
2022-11-24T01:12:12.172Z,3.5
2022-11-24T01:15:12.149Z,3.5
2022-11-24T01:18:12.182Z,3.6
2022-11-24T01:21:19.393Z,3.5
2022-11-24T01:24:12.227Z,3.6
2022-11-24T01:27:12.134Z,3.6
2022-11-24T01:30:12.121Z,3.6
2022-11-24T01:33:12.137Z,3.6
2022-11-24T01:36:12.231Z,3.7
2022-11-24T01:39:12.196Z,3.7
2022-11-24T01:42:12.183Z,3.9
2022-11-24T01:45:12.089Z,3.9
2022-11-24T01:48:12.856Z,3.9
2022-11-24T01:51:12.086Z,3.7
2022-11-24T01:54:12.170Z,3.7
2022-11-24T01:57:12.219Z,3.7
2022-11-24T02:00:12.197Z,3.7
2022-11-24T02:03:12.466Z,3.7
2022-11-24T02:06:12.126Z,3.7
2022-11-24T02:09:12.122Z,3.9
2022-11-24T02:12:12.155Z,3.9
2022-11-24T02:15:12.114Z,3.7
2022-11-24T02:18:12.242Z,3.7
2022-11-24T02:21:12.135Z,3.7
2022-11-24T02:24:12.083Z,3.6
2022-11-24T02:27:12.161Z,3.5
2022-11-24T02:30:12.134Z,3.4
2022-11-24T02:33:12.206Z,3.4
2022-11-24T02:36:12.141Z,3.5
2022-11-24T02:39:12.093Z,3.6
2022-11-24T02:42:12.153Z,3.7
2022-11-24T02:45:12.227Z,3.7
2022-11-24T02:48:12.233Z,3.7
2022-11-24T02:51:12.118Z,3.7
2022-11-24T02:54:12.197Z,3.6
2022-11-24T02:57:12.125Z,3.5
2022-11-24T03:00:12.221Z,3.4
2022-11-24T03:03:12.694Z,3.2
2022-11-24T03:06:12.325Z,3.2
2022-11-24T03:09:12.179Z,3.2
2022-11-24T03:12:12.476Z,3.2
2022-11-24T03:15:12.347Z,3.2
2022-11-24T03:18:12.114Z,3.4
2022-11-24T03:21:12.110Z,3.5
2022-11-24T03:24:12.146Z,3.6
2022-11-24T03:27:12.123Z,3.7
2022-11-24T03:30:12.185Z,3.9
2022-11-24T03:33:12.073Z,3.9
2022-11-24T03:36:12.107Z,3.9
2022-11-24T03:39:12.099Z,4
2022-11-24T03:42:12.072Z,4
2022-11-24T03:45:56.316Z,4
2022-11-24T03:48:12.068Z,3.9
2022-11-24T03:51:12.175Z,3.9
2022-11-24T03:54:12.119Z,3.7
2022-11-24T03:57:12.094Z,3.7
2022-11-24T04:00:12.100Z,3.7
2022-11-24T04:03:12.889Z,3.9
2022-11-24T04:06:12.270Z,3.9
2022-11-24T04:09:12.106Z,4
2022-11-24T04:12:12.112Z,4.1
2022-11-24T04:15:12.084Z,4.1
2022-11-24T04:18:12.835Z,4.1
2022-11-24T04:21:12.107Z,4
2022-11-24T04:24:12.232Z,4
2022-11-24T04:27:12.062Z,4
2022-11-24T04:30:12.166Z,3.9
2022-11-24T04:33:12.079Z,4
2022-11-24T04:36:12.084Z,4
2022-11-24T04:39:38.048Z,4
2022-11-24T04:42:12.043Z,4
2022-11-24T04:45:12.139Z,4.1
2022-11-24T04:48:12.040Z,4.2
2022-11-24T04:51:12.150Z,4.2
2022-11-24T04:54:12.102Z,4.4
2022-11-24T04:57:12.035Z,4.4
2022-11-24T05:00:12.168Z,4.5
2022-11-24T05:03:12.209Z,4.5
2022-11-24T05:06:12.196Z,4.5
2022-11-24T05:09:11.693Z,4.5
2022-11-24T05:12:11.772Z,4.4
2022-11-24T05:15:11.732Z,4.2
2022-11-24T05:18:11.727Z,4.1
2022-11-24T05:21:11.709Z,3.9
2022-11-24T05:24:11.727Z,3.6
2022-11-24T05:27:11.804Z,3.5
2022-11-24T05:30:11.730Z,3.4
2022-11-24T05:33:11.773Z,3.2
2022-11-24T05:36:11.776Z,3
2022-11-24T05:39:11.876Z,2.7
2022-11-24T05:42:11.703Z,2.7
2022-11-24T05:45:11.819Z,2.5
2022-11-24T05:48:11.678Z,2.4
2022-11-24T05:51:19.963Z,2.2
2022-11-24T05:54:11.778Z,2.2
2022-11-24T05:57:11.641Z,2.2
2022-11-24T06:00:11.806Z,2.1
2022-11-24T06:03:12.912Z,2
2022-11-24T06:06:11.771Z,1.9
2022-11-24T06:09:11.742Z,1.8
2022-11-24T06:12:11.824Z,1.8
2022-11-24T06:15:11.762Z,1.8
2022-11-24T06:18:11.771Z,1.8
2022-11-24T06:21:22.941Z,1.8
2022-11-24T06:24:11.759Z,1.8
2022-11-24T06:27:11.679Z,1.6
2022-11-24T06:30:11.793Z,1.6
2022-11-24T06:33:11.797Z,1.6
2022-11-24T06:36:11.785Z,1.6
2022-11-24T06:39:11.747Z,1.6
2022-11-24T06:42:11.678Z,1.8
2022-11-24T06:45:17.498Z,1.9
2022-11-24T06:48:11.761Z,2
2022-11-24T06:51:11.750Z,1.9
2022-11-24T06:54:11.778Z,1.9
2022-11-24T06:57:12.494Z,1.9
2022-11-24T07:00:11.929Z,1.8
2022-11-24T07:03:12.335Z,1.8
2022-11-24T07:06:11.992Z,1.8
2022-11-24T07:09:11.801Z,1.8
2022-11-24T07:12:11.758Z,1.9
2022-11-24T07:15:11.757Z,2
2022-11-24T07:18:11.875Z,2.2
2022-11-24T07:21:11.829Z,2.5
2022-11-24T07:24:11.839Z,2.6
2022-11-24T07:27:11.826Z,2.9
2022-11-24T07:30:11.901Z,3.1
2022-11-24T07:33:11.779Z,3.4
2022-11-24T07:36:11.757Z,3.5
2022-11-24T07:39:11.897Z,3.7
2022-11-24T07:42:11.849Z,4.1
2022-11-24T07:45:11.882Z,4.4
2022-11-24T07:48:11.752Z,4.7
2022-11-24T07:51:11.851Z,5
2022-11-24T07:54:11.892Z,5.1
2022-11-24T07:57:11.819Z,5.2
2022-11-24T08:00:11.839Z,5.4
2022-11-24T08:03:12.048Z,5.6
2022-11-24T08:06:53.740Z,5.7
2022-11-24T08:09:11.807Z,5.9
2022-11-24T08:12:12.051Z,6.1
2022-11-24T08:15:18.311Z,6.4
2022-11-24T08:18:11.805Z,6.6
2022-11-24T08:21:11.780Z,6.9
2022-11-24T08:24:11.796Z,6.9
2022-11-24T08:27:11.914Z,6.9
2022-11-24T08:30:11.953Z,6.9
2022-11-24T08:33:11.847Z,6.7
2022-11-24T08:36:11.837Z,6.9
2022-11-24T08:39:11.789Z,6.9
2022-11-24T08:42:11.827Z,7
2022-11-24T08:45:44.413Z,7.2
2022-11-24T08:48:11.927Z,7.5
2022-11-24T08:51:11.789Z,7.9
2022-11-24T08:54:11.802Z,8
2022-11-24T08:57:12.159Z,8.1
2022-11-24T09:00:11.904Z,8
2022-11-24T09:03:11.828Z,8
2022-11-24T09:06:11.845Z,8
2022-11-24T09:09:11.747Z,8.3
2022-11-24T09:12:19.193Z,8.6
2022-11-24T09:15:11.766Z,9.3
2022-11-24T09:18:11.802Z,9.9
2022-11-24T09:21:11.559Z,10.8
2022-11-24T09:24:11.877Z,11.1
2022-11-24T09:27:11.850Z,11.4
2022-11-24T09:30:11.936Z,12
2022-11-24T09:33:11.762Z,12.4
2022-11-24T09:36:12.001Z,13.1
2022-11-24T09:39:12.028Z,13.5
2022-11-24T09:42:11.930Z,13.6
2022-11-24T09:45:11.830Z,13.9
2022-11-24T09:48:11.891Z,14.6
2022-11-24T09:51:11.943Z,14.5
2022-11-24T09:54:11.938Z,14.3
2022-11-24T09:57:11.964Z,14.1
2022-11-24T10:00:12.059Z,14
2022-11-24T10:03:11.784Z,13.8
2022-11-24T10:06:11.849Z,13.3
2022-11-24T10:09:11.808Z,12.9
2022-11-24T10:12:11.821Z,12.4
2022-11-24T10:15:11.892Z,12.1
2022-11-24T10:18:19.511Z,12
2022-11-24T10:21:11.846Z,11.9
2022-11-24T10:24:11.886Z,11.8
2022-11-24T10:27:11.840Z,11.5
2022-11-24T10:30:11.822Z,11.4
2022-11-24T10:33:11.969Z,11.6
2022-11-24T10:36:11.916Z,12.2
2022-11-24T10:39:11.819Z,12.9
2022-11-24T10:42:11.824Z,13
2022-11-24T10:45:11.788Z,13
2022-11-24T10:48:11.840Z,14
2022-11-24T10:51:11.831Z,14.1
2022-11-24T10:54:11.755Z,14.9
2022-11-24T10:57:11.881Z,16.4
2022-11-24T11:00:11.907Z,19.4
2022-11-24T11:03:12.421Z,21.2
2022-11-24T11:06:11.858Z,21.1
2022-11-24T11:09:11.852Z,19.8
2022-11-24T11:12:54.359Z,19.4
2022-11-24T11:15:11.887Z,18.8
2022-11-24T11:18:11.911Z,18.4
2022-11-24T11:21:11.774Z,18.6
2022-11-24T11:24:11.883Z,18.9
2022-11-24T11:27:11.906Z,19
2022-11-24T11:36:11.985Z,19.4
2022-11-24T11:39:11.978Z,22.4
2022-11-24T11:42:21.194Z,22.9
2022-11-24T11:45:11.949Z,24.6
2022-11-24T11:48:11.836Z,25.6
2022-11-24T11:51:35.709Z,23.7
2022-11-24T11:54:12.369Z,22.1
2022-11-24T11:57:11.826Z,21.2
2022-11-24T12:00:12.108Z,21
2022-11-24T12:03:12.965Z,21
2022-11-24T12:06:11.832Z,20.3
2022-11-24T12:09:44.814Z,19.1
2022-11-24T12:12:11.930Z,18.3
2022-11-24T12:15:21.826Z,17.6
2022-11-24T12:18:58.711Z,17.2
2022-11-24T12:21:11.878Z,16.9
2022-11-24T12:24:11.868Z,16.8
2022-11-24T12:27:11.912Z,16.5
2022-11-24T12:30:12.115Z,16.1
2022-11-24T12:33:11.881Z,15.8
2022-11-24T12:36:11.923Z,15.6
2022-11-24T12:39:11.773Z,15.6
2022-11-24T12:42:11.910Z,15.4
2022-11-24T12:45:11.832Z,15.1
2022-11-24T12:48:11.879Z,14.6
2022-11-24T12:51:11.796Z,14.1
2022-11-24T12:54:11.855Z,13.6
2022-11-24T12:57:11.869Z,13.3
2022-11-24T13:00:12.061Z,13.3
2022-11-24T13:03:13.170Z,13.1
2022-11-24T13:06:11.826Z,12.9
2022-11-24T13:09:11.903Z,12.9
2022-11-24T13:12:14.902Z,12.9
2022-11-24T13:15:45.478Z,13
2022-11-24T13:18:24.066Z,12.9
2022-11-24T13:21:11.928Z,12.4
2022-11-24T13:24:11.821Z,12.1
2022-11-24T13:27:11.845Z,12.2
2022-11-24T13:30:11.919Z,14.3
2022-11-24T13:33:21.630Z,15.8
2022-11-24T13:36:11.928Z,18.1
2022-11-24T13:39:11.749Z,18.9
2022-11-24T13:42:44.472Z,16.9
2022-11-24T13:45:11.755Z,15.8
2022-11-24T13:48:11.839Z,14.7
2022-11-24T13:51:11.802Z,14
2022-11-24T13:54:12.034Z,13.3
2022-11-24T13:57:11.813Z,12.6
2022-11-24T14:00:12.170Z,12.1
2022-11-24T14:03:12.358Z,11.8
2022-11-24T14:06:11.823Z,11.4
2022-11-24T14:09:11.834Z,11.1
2022-11-24T14:12:11.894Z,11
2022-11-24T14:15:11.993Z,10.8
2022-11-24T14:18:11.935Z,10.6
2022-11-24T14:21:11.839Z,10.5
2022-11-24T14:24:11.986Z,10.5
2022-11-24T14:27:11.825Z,10.5
2022-11-24T14:30:11.901Z,10.4
2022-11-24T14:33:11.957Z,10.4
2022-11-24T14:36:11.826Z,10.3
2022-11-24T14:39:11.894Z,10.3
2022-11-24T14:42:11.870Z,10.3
2022-11-24T14:45:11.825Z,10.3
2022-11-24T14:48:11.947Z,10.3
2022-11-24T14:51:11.794Z,10.3
2022-11-24T14:54:11.816Z,10.1
2022-11-24T14:57:11.814Z,10
2022-11-24T15:00:11.926Z,9.8
2022-11-24T15:03:11.865Z,9.6
2022-11-24T15:06:11.921Z,9.5
2022-11-24T15:09:11.809Z,9.4
2022-11-24T15:12:11.961Z,9.3
2022-11-24T15:15:11.847Z,9
2022-11-24T15:18:11.841Z,8.8
2022-11-24T15:21:19.630Z,8.5
2022-11-24T15:24:11.802Z,8.3
2022-11-24T15:27:11.750Z,7.9
2022-11-24T15:30:11.752Z,7.7
2022-11-24T15:33:11.730Z,7.6
2022-11-24T15:36:11.868Z,7.4
2022-11-24T15:39:11.738Z,7.4
2022-11-24T15:42:11.774Z,7.2
2022-11-24T15:45:11.796Z,7.1
2022-11-24T15:48:18.621Z,7
2022-11-24T15:51:11.747Z,6.9
2022-11-24T15:54:12.713Z,6.7
2022-11-24T15:57:11.762Z,6.6
2022-11-24T16:00:11.871Z,6.5
2022-11-24T16:03:58.227Z,6.4
2022-11-24T16:06:12.413Z,6.1
2022-11-24T16:09:11.807Z,5.9
2022-11-24T16:12:11.780Z,5.7
2022-11-24T16:15:11.831Z,5.6
2022-11-24T16:18:11.745Z,5.6
2022-11-24T16:21:11.733Z,5.5
2022-11-24T16:24:11.847Z,5.5
2022-11-24T16:27:11.843Z,5.4
2022-11-24T16:30:11.735Z,5.2
2022-11-24T16:33:11.769Z,5.1
2022-11-24T16:36:11.766Z,5.1
2022-11-24T16:39:11.763Z,5
2022-11-24T16:42:11.759Z,4.9
2022-11-24T16:45:11.857Z,4.9
2022-11-24T16:48:11.799Z,5
2022-11-24T16:51:11.759Z,5.1
2022-11-24T16:54:11.780Z,5.4
2022-11-24T16:57:19.316Z,5.6
2022-11-24T17:00:11.933Z,5.9
2022-11-24T17:03:11.777Z,6.1
2022-11-24T17:06:11.725Z,6.4
2022-11-24T17:09:11.825Z,6.6
2022-11-24T17:12:11.784Z,6.7
2022-11-24T17:18:36.666Z,7.1
2022-11-24T17:21:20.818Z,7.1
2022-11-24T17:24:11.775Z,7.1
2022-11-24T17:27:11.726Z,7.1
2022-11-24T17:30:11.767Z,7
2022-11-24T17:33:11.787Z,7
2022-11-24T17:36:11.842Z,7
2022-11-24T17:39:12.033Z,7
2022-11-24T17:42:11.842Z,7
2022-11-24T17:45:11.783Z,7
2022-11-24T17:48:11.874Z,7
2022-11-24T17:51:11.774Z,6.9
2022-11-24T17:54:55.670Z,6.7
2022-11-24T17:57:11.678Z,6.7
2022-11-24T18:00:11.948Z,6.6
2022-11-24T18:03:11.749Z,6.5
2022-11-24T18:06:11.904Z,6.4
2022-11-24T18:09:11.782Z,6.2
2022-11-24T18:12:11.771Z,6.1
2022-11-24T18:15:11.781Z,6
2022-11-24T18:18:11.789Z,6.1
2022-11-24T18:21:11.807Z,6.2
2022-11-24T18:24:11.804Z,6.5
2022-11-24T18:27:11.835Z,6.6
2022-11-24T18:30:11.907Z,6.9
2022-11-24T18:33:11.716Z,7
2022-11-24T18:36:11.799Z,7.1
2022-11-24T18:39:11.846Z,7.2
2022-11-24T18:42:11.797Z,7.4
2022-11-24T18:45:11.786Z,7.5
2022-11-24T18:48:11.819Z,7.5
2022-11-24T18:51:11.875Z,7.6
2022-11-24T18:54:11.813Z,7.5
2022-11-24T18:57:14.842Z,7.5
2022-11-24T19:00:11.803Z,7.5
2022-11-24T19:03:11.769Z,7.4
2022-11-24T19:06:11.834Z,7.2
2022-11-24T19:09:11.837Z,7.2
2022-11-24T19:12:15.749Z,7
2022-11-24T19:15:11.769Z,6.9
2022-11-24T19:18:11.742Z,6.7
2022-11-24T19:21:11.768Z,6.5
2022-11-24T19:24:17.108Z,6.4
2022-11-24T19:27:11.748Z,6.1
2022-11-24T19:30:11.892Z,5.9
2022-11-24T19:33:11.745Z,5.7
2022-11-24T19:36:11.814Z,5.5
2022-11-24T19:39:12.103Z,5.4
2022-11-24T19:42:11.790Z,5.1
2022-11-24T19:45:11.824Z,4.9
2022-11-24T19:48:11.800Z,4.6
2022-11-24T19:51:11.764Z,4.5
2022-11-24T19:54:11.792Z,4.2
2022-11-24T19:57:11.825Z,4.1
2022-11-24T20:00:11.728Z,3.9
2022-11-24T20:03:11.931Z,3.7
2022-11-24T20:06:11.805Z,3.6
2022-11-24T20:09:11.822Z,3.4
2022-11-24T20:12:11.734Z,3.2
2022-11-24T20:15:11.757Z,3.1
2022-11-24T20:18:11.735Z,2.9
2022-11-24T20:21:11.789Z,2.7
2022-11-24T20:24:11.817Z,2.6
2022-11-24T20:27:11.785Z,2.5
2022-11-24T20:30:11.938Z,2.2
2022-11-24T20:33:11.758Z,2.2
2022-11-24T20:36:11.816Z,2.1
2022-11-24T20:39:11.674Z,2
2022-11-24T20:42:11.760Z,1.9
2022-11-24T20:45:11.689Z,1.8
2022-11-24T20:48:11.792Z,1.6
2022-11-24T20:51:11.801Z,1.5
2022-11-24T20:54:11.803Z,1.5
2022-11-24T20:57:11.772Z,1.4
2022-11-24T21:00:11.867Z,1.3
2022-11-24T21:03:11.789Z,1.3
2022-11-24T21:06:11.838Z,1.1
2022-11-24T21:09:15.342Z,1.1
2022-11-24T21:12:11.824Z,1
2022-11-24T21:15:11.714Z,0.9
2022-11-24T21:18:11.872Z,0.9
2022-11-24T21:21:11.745Z,0.8
2022-11-24T21:24:11.838Z,0.6
2022-11-24T21:27:11.784Z,0.8
2022-11-24T21:30:11.849Z,0.8
2022-11-24T21:33:11.719Z,0.8
2022-11-24T21:36:11.802Z,0.8
2022-11-24T21:39:12.486Z,0.8
2022-11-24T21:42:11.765Z,0.8
2022-11-24T21:45:11.768Z,0.8
2022-11-24T21:48:11.778Z,0.6
2022-11-24T21:51:11.748Z,0.6
2022-11-24T21:54:11.819Z,0.5
2022-11-24T21:57:11.728Z,0.4
2022-11-24T22:00:11.902Z,0.4
2022-11-24T22:03:11.845Z,0.4
2022-11-24T22:06:11.758Z,0.3
2022-11-24T22:09:18.337Z,0.3
2022-11-24T22:12:11.732Z,0.1
2022-11-24T22:15:11.787Z,0.1
2022-11-24T22:18:11.731Z,0.1
2022-11-24T22:21:11.748Z,0
2022-11-24T22:24:11.717Z,0
2022-11-24T22:27:11.774Z,0
2022-11-24T22:30:11.815Z,-0.1
2022-11-24T22:33:11.818Z,-0.1
2022-11-24T22:36:11.812Z,-0.1
2022-11-24T22:39:11.837Z,-0.1
2022-11-24T22:42:11.843Z,-0.1
2022-11-24T22:45:11.804Z,-0.1
2022-11-24T22:48:11.742Z,-0.3
2022-11-24T22:51:11.808Z,-0.1
2022-11-24T22:54:11.775Z,-0.1
2022-11-24T22:57:11.809Z,-0.1
2022-11-24T23:00:12.360Z,-0.3
2022-11-24T23:03:12.285Z,-0.3
2022-11-24T23:06:11.797Z,-0.4
2022-11-24T23:09:11.787Z,-0.5
2022-11-24T23:12:11.791Z,-0.5
2022-11-24T23:15:11.835Z,-0.5
2022-11-24T23:18:11.741Z,-0.5
2022-11-24T23:21:11.890Z,-0.4
2022-11-24T23:24:11.897Z,-0.3
2022-11-24T23:27:11.836Z,-0.3
2022-11-24T23:30:11.753Z,-0.1
2022-11-24T23:33:11.805Z,-0.1
2022-11-24T23:36:11.811Z,0
2022-11-24T23:39:11.801Z,0
2022-11-24T23:42:11.782Z,0.3
2022-11-24T23:45:11.815Z,0.4
2022-11-24T23:48:11.728Z,0.5
2022-11-24T23:51:11.944Z,0.6
2022-11-24T23:57:11.700Z,0.5
